Terminal Aerodrome Forecast
Issued by NWS

Home | Current Version | Previous Version | Text Only | Print | Product List | Glossary On
Versions: 1 2 3 4 5 6 7 8 9 10 11 12 13 14 15 16 17 18 19 20 21
000
FTUS45 KGJT 230749 AAB
TAFEGE
TAF AMD
KEGE 230749Z 2308/2406 00000KT 3SM BR VCSH SCT013 BKN020 OVC026
     FM231700 20008KT P6SM VCSH SCT045 OVC060
     FM231900 23011KT P6SM VCSH SCT045 OVC070
     FM232200 24009KT P6SM -SHSN SCT045 OVC060
     FM240100 24007KT 4SM -SHSN BKN035 OVC040
      AMD LTD TO CLD VIS AND WIND TIL 231400=

USA.gov is the U.S. government's official web portal to all federal, state and local government web resources and services.